createdAt,value
2018-12-20T00:00:21.600Z,1006.27
2018-12-20T00:01:21.781Z,1006.27
2018-12-20T00:02:21.571Z,1006.27
2018-12-20T00:03:21.568Z,1006.22
2018-12-20T00:04:21.549Z,1006.22
2018-12-20T00:05:21.559Z,1006.24
2018-12-20T00:06:21.559Z,1006.22
2018-12-20T00:07:21.659Z,1006.18
2018-12-20T00:08:21.609Z,1006.23
2018-12-20T00:09:21.743Z,1006.23
2018-12-20T00:10:21.714Z,1006.28
2018-12-20T00:11:21.519Z,1006.27
2018-12-20T00:12:21.650Z,1006.26
2018-12-20T00:13:21.504Z,1006.24
2018-12-20T00:14:21.708Z,1006.25
2018-12-20T00:15:21.486Z,1006.33
2018-12-20T00:16:21.557Z,1006.27
2018-12-20T00:17:21.514Z,1006.29
2018-12-20T00:18:21.468Z,1006.31
2018-12-20T00:19:21.783Z,1006.34
2018-12-20T00:20:21.541Z,1006.39
2018-12-20T00:21:21.503Z,1006.36
2018-12-20T00:22:21.660Z,1006.37
2018-12-20T00:23:21.805Z,1006.35
2018-12-20T00:24:21.655Z,1006.39
2018-12-20T00:25:21.493Z,1006.34
2018-12-20T00:26:21.458Z,1006.31
2018-12-20T00:27:21.425Z,1006.33
2018-12-20T00:28:21.470Z,1006.28
2018-12-20T00:29:21.409Z,1006.27
2018-12-20T00:30:21.427Z,1006.30
2018-12-20T00:31:21.398Z,1006.28
2018-12-20T00:32:21.652Z,1006.25
2018-12-20T00:33:21.492Z,1006.27
2018-12-20T00:34:21.413Z,1006.24
2018-12-20T00:35:21.375Z,1006.25
2018-12-20T00:36:21.387Z,1006.27
2018-12-20T00:37:21.401Z,1006.28
2018-12-20T00:38:21.384Z,1006.22
2018-12-20T00:39:21.368Z,1006.26
2018-12-20T00:40:21.451Z,1006.23
2018-12-20T00:41:21.484Z,1006.28
2018-12-20T00:42:21.346Z,1006.30
2018-12-20T00:43:31.077Z,1006.25
2018-12-20T00:44:21.327Z,1006.31
2018-12-20T00:45:21.336Z,1006.28
2018-12-20T00:46:21.317Z,1006.34
2018-12-20T00:47:21.316Z,1006.31
2018-12-20T00:48:21.314Z,1006.28
2018-12-20T00:49:21.315Z,1006.28
2018-12-20T00:50:21.321Z,1006.26
2018-12-20T00:51:21.290Z,1006.21
2018-12-20T00:52:21.315Z,1006.23
2018-12-20T00:53:21.294Z,1006.23
2018-12-20T00:54:21.294Z,1006.21
2018-12-20T00:55:21.619Z,1006.16
2018-12-20T00:56:21.275Z,1006.22
2018-12-20T00:57:21.301Z,1006.27
2018-12-20T00:58:21.460Z,1006.26
2018-12-20T00:59:21.257Z,1006.22
2018-12-20T01:00:21.290Z,1006.25
2018-12-20T01:01:21.241Z,1006.27
2018-12-20T01:02:21.435Z,1006.26
2018-12-20T01:03:21.257Z,1006.24
2018-12-20T01:04:21.363Z,1006.21
2018-12-20T01:05:21.318Z,1006.14
2018-12-20T01:06:21.207Z,1006.24
2018-12-20T01:07:21.236Z,1006.21
2018-12-20T01:08:21.244Z,1006.15
2018-12-20T01:09:21.203Z,1006.22
2018-12-20T01:10:21.309Z,1006.20
2018-12-20T01:11:21.193Z,1006.19
2018-12-20T01:12:21.205Z,1006.18
2018-12-20T01:13:21.252Z,1006.22
2018-12-20T01:14:21.165Z,1006.19
2018-12-20T01:15:21.163Z,1006.19
2018-12-20T01:16:21.256Z,1006.20
2018-12-20T01:17:21.170Z,1006.16
2018-12-20T01:18:21.264Z,1006.20
2018-12-20T01:19:21.275Z,1006.19
2018-12-20T01:20:21.153Z,1006.22
2018-12-20T01:21:21.344Z,1006.24
2018-12-20T01:22:21.274Z,1006.21
2018-12-20T01:23:21.133Z,1006.24
2018-12-20T01:24:21.470Z,1006.27
2018-12-20T01:25:21.147Z,1006.28
2018-12-20T01:26:21.315Z,1006.25
2018-12-20T01:27:21.115Z,1006.24
2018-12-20T01:28:21.252Z,1006.27
2018-12-20T01:29:21.240Z,1006.23
2018-12-20T01:30:21.222Z,1006.27
2018-12-20T01:31:21.241Z,1006.22
2018-12-20T01:32:21.225Z,1006.23
2018-12-20T01:33:21.214Z,1006.22
2018-12-20T01:34:21.418Z,1006.22
2018-12-20T01:35:21.110Z,1006.26
2018-12-20T01:36:21.329Z,1006.20
2018-12-20T01:37:21.038Z,1006.23
2018-12-20T01:38:21.214Z,1006.20
2018-12-20T01:39:21.232Z,1006.20
2018-12-20T01:40:21.356Z,1006.21
2018-12-20T01:41:21.065Z,1006.22
2018-12-20T01:42:21.234Z,1006.22
2018-12-20T01:43:21.042Z,1006.22
2018-12-20T01:44:21.048Z,1006.23
2018-12-20T01:45:21.056Z,1006.22
2018-12-20T01:46:21.195Z,1006.23
2018-12-20T01:47:21.289Z,1006.26
2018-12-20T01:48:21.027Z,1006.23
2018-12-20T01:49:21.145Z,1006.25
2018-12-20T01:50:21.172Z,1006.21
2018-12-20T01:51:21.169Z,1006.19
2018-12-20T01:52:20.984Z,1006.18
2018-12-20T01:53:21.070Z,1006.18
2018-12-20T01:54:20.954Z,1006.20
2018-12-20T01:55:21.279Z,1006.20
2018-12-20T01:56:20.939Z,1006.19
2018-12-20T01:57:20.939Z,1006.20
2018-12-20T01:58:20.950Z,1006.23
2018-12-20T01:59:21.160Z,1006.17
2018-12-20T02:00:20.917Z,1006.18
2018-12-20T02:01:20.973Z,1006.21
2018-12-20T02:02:21.004Z,1006.19
2018-12-20T02:03:20.914Z,1006.20
2018-12-20T02:04:21.288Z,1006.19
2018-12-20T02:05:20.901Z,1006.22
2018-12-20T02:06:20.944Z,1006.24
2018-12-20T02:07:21.089Z,1006.21
2018-12-20T02:08:20.892Z,1006.24
2018-12-20T02:09:21.002Z,1006.20
2018-12-20T02:10:20.858Z,1006.18
2018-12-20T02:11:20.945Z,1006.16
2018-12-20T02:12:20.866Z,1006.20
2018-12-20T02:13:21.090Z,1006.18
2018-12-20T02:14:20.834Z,1006.24
2018-12-20T02:15:20.824Z,1006.20
2018-12-20T02:16:21.215Z,1006.23
2018-12-20T02:17:21.273Z,1006.23
2018-12-20T02:18:20.878Z,1006.23
2018-12-20T02:19:20.888Z,1006.20
2018-12-20T02:20:20.953Z,1006.22
2018-12-20T02:21:20.853Z,1006.24
2018-12-20T02:22:20.990Z,1006.19
2018-12-20T02:23:20.909Z,1006.19
2018-12-20T02:24:20.803Z,1006.20
2018-12-20T02:25:21.070Z,1006.21
2018-12-20T02:26:20.976Z,1006.17
2018-12-20T02:27:20.771Z,1006.14
2018-12-20T02:28:21.048Z,1006.13
2018-12-20T02:29:20.772Z,1006.12
2018-12-20T02:30:20.852Z,1006.10
2018-12-20T02:31:20.941Z,1006.10
2018-12-20T02:32:20.958Z,1006.08
2018-12-20T02:33:20.809Z,1006.10
2018-12-20T02:34:20.905Z,1006.09
2018-12-20T02:35:20.843Z,1006.14
2018-12-20T02:36:20.867Z,1006.07
2018-12-20T02:37:21.192Z,1006.06
2018-12-20T02:38:20.729Z,1006.04
2018-12-20T02:39:20.780Z,1006.06
2018-12-20T02:40:20.940Z,1006.06
2018-12-20T02:41:20.943Z,1006.04
2018-12-20T02:42:20.679Z,1005.98
2018-12-20T02:43:20.678Z,1005.98
2018-12-20T02:44:20.668Z,1005.99
2018-12-20T02:45:20.845Z,1005.99
2018-12-20T02:46:20.879Z,1006.00
2018-12-20T02:47:20.660Z,1005.96
2018-12-20T02:48:20.771Z,1006.02
2018-12-20T02:49:20.714Z,1006.00
2018-12-20T02:50:20.848Z,1005.98
2018-12-20T02:51:20.860Z,1005.95
2018-12-20T02:52:20.875Z,1005.94
2018-12-20T02:53:20.779Z,1005.97
2018-12-20T02:54:20.682Z,1005.96
2018-12-20T02:55:20.849Z,1005.99
2018-12-20T02:56:20.848Z,1005.97
2018-12-20T02:57:20.685Z,1005.90
2018-12-20T02:58:20.893Z,1005.91
2018-12-20T02:59:20.753Z,1005.90
2018-12-20T03:00:20.620Z,1005.90
2018-12-20T03:01:20.566Z,1005.88
2018-12-20T03:02:20.734Z,1005.90
2018-12-20T03:03:20.577Z,1005.89
2018-12-20T03:04:20.753Z,1005.88
2018-12-20T03:05:20.816Z,1005.84
2018-12-20T03:06:20.723Z,1005.84
2018-12-20T03:07:20.580Z,1005.82
2018-12-20T03:08:20.876Z,1005.84
2018-12-20T03:09:20.599Z,1005.80
2018-12-20T03:10:20.532Z,1005.82
2018-12-20T03:11:20.517Z,1005.85
2018-12-20T03:12:20.741Z,1005.82
2018-12-20T03:13:20.839Z,1005.80
2018-12-20T03:14:20.511Z,1005.79
2018-12-20T03:15:20.599Z,1005.77
2018-12-20T03:16:20.686Z,1005.76
2018-12-20T03:17:20.498Z,1005.78
2018-12-20T03:18:20.576Z,1005.76
2018-12-20T03:19:20.577Z,1005.81
2018-12-20T03:20:20.465Z,1005.72
2018-12-20T03:21:20.644Z,1005.73
2018-12-20T03:22:20.726Z,1005.75
2018-12-20T03:23:20.665Z,1005.74
2018-12-20T03:24:20.776Z,1005.75
2018-12-20T03:25:20.780Z,1005.76
2018-12-20T03:26:20.647Z,1005.76
2018-12-20T03:27:20.446Z,1005.76
2018-12-20T03:28:20.417Z,1005.80
2018-12-20T03:29:20.764Z,1005.76
2018-12-20T03:30:20.585Z,1005.81
2018-12-20T03:31:20.420Z,1005.76
2018-12-20T03:32:20.416Z,1005.75
2018-12-20T03:33:20.437Z,1005.76
2018-12-20T03:34:20.427Z,1005.78
2018-12-20T03:35:20.380Z,1005.74
2018-12-20T03:36:20.681Z,1005.75
2018-12-20T03:37:20.382Z,1005.75
2018-12-20T03:38:20.389Z,1005.72
2018-12-20T03:39:20.423Z,1005.73
2018-12-20T03:40:20.749Z,1005.77
2018-12-20T03:41:20.503Z,1005.74
2018-12-20T03:42:20.365Z,1005.74
2018-12-20T03:43:20.558Z,1005.72
2018-12-20T03:44:20.524Z,1005.73
2018-12-20T03:45:28.381Z,1005.73
2018-12-20T03:46:20.336Z,1005.70
2018-12-20T03:47:20.556Z,1005.70
2018-12-20T03:48:20.496Z,1005.69
2018-12-20T03:49:20.622Z,1005.68
2018-12-20T03:50:20.304Z,1005.68
2018-12-20T03:51:20.291Z,1005.68
2018-12-20T03:52:20.300Z,1005.67
2018-12-20T03:53:20.311Z,1005.64
2018-12-20T03:54:20.434Z,1005.69
2018-12-20T03:55:20.282Z,1005.73
2018-12-20T03:56:20.267Z,1005.69
2018-12-20T03:57:20.568Z,1005.68
2018-12-20T03:58:20.368Z,1005.68
2018-12-20T03:59:20.281Z,1005.70
2018-12-20T04:00:20.561Z,1005.71
2018-12-20T04:01:20.247Z,1005.72
2018-12-20T04:02:20.364Z,1005.73
2018-12-20T04:03:20.306Z,1005.73
2018-12-20T04:04:20.656Z,1005.74
2018-12-20T04:05:20.234Z,1005.73
2018-12-20T04:06:20.594Z,1005.75
2018-12-20T04:07:20.413Z,1005.75
2018-12-20T04:08:20.233Z,1005.75
2018-12-20T04:09:20.378Z,1005.77
2018-12-20T04:10:20.191Z,1005.76
2018-12-20T04:11:20.357Z,1005.73
2018-12-20T04:12:20.177Z,1005.73
2018-12-20T04:13:20.453Z,1005.69
2018-12-20T04:14:20.168Z,1005.71
2018-12-20T04:15:20.314Z,1005.77
2018-12-20T04:16:20.264Z,1005.74
2018-12-20T04:17:20.315Z,1005.73
2018-12-20T04:18:20.143Z,1005.72
2018-12-20T04:19:20.210Z,1005.68
2018-12-20T04:20:20.204Z,1005.74
2018-12-20T04:21:20.361Z,1005.69
2018-12-20T04:22:20.549Z,1005.71
2018-12-20T04:23:20.115Z,1005.74
2018-12-20T04:24:20.235Z,1005.69
2018-12-20T04:25:20.118Z,1005.73
2018-12-20T04:26:20.380Z,1005.68
2018-12-20T04:27:20.104Z,1005.65
2018-12-20T04:28:20.470Z,1005.71
2018-12-20T04:29:20.084Z,1005.66
2018-12-20T04:30:20.365Z,1005.69
2018-12-20T04:31:20.316Z,1005.71
2018-12-20T04:32:20.089Z,1005.69
2018-12-20T04:33:20.542Z,1005.69
2018-12-20T04:34:20.309Z,1005.68
2018-12-20T04:35:20.066Z,1005.66
2018-12-20T04:36:20.088Z,1005.67
2018-12-20T04:37:20.259Z,1005.68
2018-12-20T04:38:20.166Z,1005.69
2018-12-20T04:39:20.314Z,1005.65
2018-12-20T04:40:20.243Z,1005.73
2018-12-20T04:41:20.263Z,1005.70
2018-12-20T04:42:20.020Z,1005.72
2018-12-20T04:43:20.012Z,1005.75
2018-12-20T04:44:20.208Z,1005.75
2018-12-20T04:45:20.202Z,1005.81
2018-12-20T04:46:20.066Z,1005.82
2018-12-20T04:47:20.039Z,1005.82
2018-12-20T04:48:20.220Z,1005.86
2018-12-20T04:49:20.198Z,1005.87
2018-12-20T04:50:20.105Z,1005.89
2018-12-20T04:51:19.998Z,1005.86
2018-12-20T04:52:20.023Z,1005.87
2018-12-20T04:53:20.076Z,1005.89
2018-12-20T04:54:20.268Z,1005.88
2018-12-20T04:55:20.275Z,1005.89
2018-12-20T04:56:20.392Z,1005.92
2018-12-20T04:57:20.311Z,1005.90
2018-12-20T04:58:19.927Z,1005.90
2018-12-20T04:59:20.142Z,1005.94
2018-12-20T05:00:19.912Z,1005.91
2018-12-20T05:01:19.925Z,1005.96
2018-12-20T05:02:20.104Z,1005.95
2018-12-20T05:03:19.959Z,1005.99
2018-12-20T05:04:20.079Z,1005.95
2018-12-20T05:05:20.334Z,1005.98
2018-12-20T05:06:19.875Z,1006.02
2018-12-20T05:07:19.875Z,1005.98
2018-12-20T05:08:19.948Z,1005.95
2018-12-20T05:09:19.871Z,1005.94
2018-12-20T05:10:19.868Z,1005.87
2018-12-20T05:11:19.942Z,1005.90
2018-12-20T05:12:19.845Z,1005.92
2018-12-20T05:13:20.105Z,1005.87
2018-12-20T05:14:20.051Z,1005.87
2018-12-20T05:15:19.844Z,1005.86
2018-12-20T05:16:19.987Z,1005.89
2018-12-20T05:17:19.860Z,1005.93
2018-12-20T05:18:19.840Z,1005.87
2018-12-20T05:19:19.844Z,1005.94
2018-12-20T05:20:20.034Z,1005.95
2018-12-20T05:21:20.225Z,1005.95
2018-12-20T05:22:20.003Z,1005.96
2018-12-20T05:23:19.793Z,1005.93
2018-12-20T05:24:19.817Z,1005.97
2018-12-20T05:25:19.985Z,1006.01
2018-12-20T05:26:19.807Z,1005.98
2018-12-20T05:27:19.870Z,1005.98
2018-12-20T05:28:19.804Z,1006.01
2018-12-20T05:29:19.760Z,1005.98
2018-12-20T05:30:19.764Z,1006.02
2018-12-20T05:31:19.999Z,1006.01
2018-12-20T05:32:20.018Z,1006.03
2018-12-20T05:33:20.258Z,1006.00
2018-12-20T05:34:20.105Z,1006.05
2018-12-20T05:35:19.958Z,1006.03
2018-12-20T05:36:19.779Z,1006.05
2018-12-20T05:37:19.842Z,1006.03
2018-12-20T05:38:19.701Z,1006.07
2018-12-20T05:39:19.903Z,1006.07
2018-12-20T05:40:19.916Z,1006.06
2018-12-20T05:41:19.704Z,1006.06
2018-12-20T05:42:19.739Z,1006.13
2018-12-20T05:43:19.675Z,1006.07
2018-12-20T05:44:19.877Z,1006.09
2018-12-20T05:45:19.880Z,1006.10
2018-12-20T05:46:19.673Z,1006.10
2018-12-20T05:47:19.726Z,1006.14
2018-12-20T05:48:19.719Z,1006.09
2018-12-20T05:49:19.642Z,1006.07
2018-12-20T05:50:19.650Z,1006.09
2018-12-20T05:51:19.810Z,1006.10
2018-12-20T05:52:19.621Z,1006.16
2018-12-20T05:53:19.627Z,1006.12
2018-12-20T05:54:19.669Z,1006.11
2018-12-20T05:55:19.653Z,1006.14
2018-12-20T05:56:19.852Z,1006.15
2018-12-20T05:57:19.598Z,1006.18
2018-12-20T05:58:19.809Z,1006.18
2018-12-20T05:59:19.883Z,1006.16
2018-12-20T06:00:19.669Z,1006.14
2018-12-20T06:01:19.778Z,1006.20
2018-12-20T06:02:19.590Z,1006.20
2018-12-20T06:03:19.735Z,1006.20
2018-12-20T06:04:19.572Z,1006.20
2018-12-20T06:05:19.696Z,1006.22
2018-12-20T06:06:19.549Z,1006.20
2018-12-20T06:07:19.559Z,1006.22
2018-12-20T06:08:19.836Z,1006.23
2018-12-20T06:09:19.731Z,1006.25
2018-12-20T06:10:19.745Z,1006.26
2018-12-20T06:11:19.526Z,1006.28
2018-12-20T06:12:19.552Z,1006.28
2018-12-20T06:13:19.573Z,1006.26
2018-12-20T06:14:19.667Z,1006.30
2018-12-20T06:15:19.516Z,1006.32
2018-12-20T06:16:19.542Z,1006.34
2018-12-20T06:17:19.536Z,1006.31
2018-12-20T06:18:19.546Z,1006.37
2018-12-20T06:19:19.505Z,1006.38
2018-12-20T06:20:19.720Z,1006.39
2018-12-20T06:21:19.679Z,1006.41
2018-12-20T06:22:19.656Z,1006.43
2018-12-20T06:23:19.476Z,1006.45
2018-12-20T06:24:19.448Z,1006.44
2018-12-20T06:25:21.349Z,1006.43
2018-12-20T06:26:19.650Z,1006.41
2018-12-20T06:27:19.636Z,1006.41
2018-12-20T06:28:19.439Z,1006.40
2018-12-20T06:29:19.440Z,1006.42
2018-12-20T06:30:19.423Z,1006.41
2018-12-20T06:31:19.427Z,1006.44
2018-12-20T06:32:19.414Z,1006.40
2018-12-20T06:33:19.392Z,1006.42
2018-12-20T06:34:19.399Z,1006.45
2018-12-20T06:35:19.387Z,1006.40
2018-12-20T06:36:19.383Z,1006.45
2018-12-20T06:37:19.392Z,1006.42
2018-12-20T06:38:19.370Z,1006.44
2018-12-20T06:39:19.364Z,1006.46
2018-12-20T06:40:19.363Z,1006.49
2018-12-20T06:41:19.558Z,1006.43
2018-12-20T06:42:19.344Z,1006.44
2018-12-20T06:43:19.346Z,1006.41
2018-12-20T06:44:19.348Z,1006.46
2018-12-20T06:45:19.338Z,1006.43
2018-12-20T06:46:21.249Z,1006.40
2018-12-20T06:47:19.315Z,1006.39
2018-12-20T06:48:19.312Z,1006.39
2018-12-20T06:49:19.524Z,1006.41
2018-12-20T06:50:19.315Z,1006.40
2018-12-20T06:51:19.305Z,1006.36
2018-12-20T06:52:19.303Z,1006.38
2018-12-20T06:53:19.282Z,1006.41
2018-12-20T06:54:19.294Z,1006.44
2018-12-20T06:55:19.272Z,1006.44
2018-12-20T06:56:19.285Z,1006.44
2018-12-20T06:57:19.267Z,1006.41
2018-12-20T06:58:19.257Z,1006.44
2018-12-20T06:59:19.265Z,1006.48
2018-12-20T07:00:19.266Z,1006.47
2018-12-20T07:01:19.236Z,1006.48
2018-12-20T07:02:19.250Z,1006.45
2018-12-20T07:03:19.250Z,1006.49
2018-12-20T07:04:19.230Z,1006.48
2018-12-20T07:05:19.232Z,1006.47
2018-12-20T07:06:19.232Z,1006.48
2018-12-20T07:07:19.206Z,1006.44
2018-12-20T07:08:19.196Z,1006.51
2018-12-20T07:09:19.202Z,1006.51
2018-12-20T07:10:19.394Z,1006.51
2018-12-20T07:11:19.187Z,1006.49
2018-12-20T07:12:19.176Z,1006.52
2018-12-20T07:13:19.172Z,1006.51
2018-12-20T07:14:19.176Z,1006.50
2018-12-20T07:15:19.168Z,1006.50
2018-12-20T07:16:19.154Z,1006.52
2018-12-20T07:17:19.168Z,1006.52
2018-12-20T07:18:19.354Z,1006.51
2018-12-20T07:19:19.358Z,1006.49
2018-12-20T07:20:19.144Z,1006.51
2018-12-20T07:21:19.134Z,1006.47
2018-12-20T07:22:19.121Z,1006.48
2018-12-20T07:23:19.341Z,1006.44
2018-12-20T07:24:19.127Z,1006.45
2018-12-20T07:25:19.123Z,1006.49
2018-12-20T07:26:19.105Z,1006.52
2018-12-20T07:27:19.103Z,1006.52
2018-12-20T07:28:19.092Z,1006.53
2018-12-20T07:29:19.085Z,1006.50
2018-12-20T07:30:19.082Z,1006.51
2018-12-20T07:31:19.079Z,1006.50
2018-12-20T07:32:25.138Z,1006.53
2018-12-20T07:33:19.070Z,1006.53
2018-12-20T07:34:19.060Z,1006.54
2018-12-20T07:35:19.053Z,1006.54
2018-12-20T07:36:19.061Z,1006.56
2018-12-20T07:37:19.243Z,1006.56
2018-12-20T07:38:19.033Z,1006.53
2018-12-20T07:39:19.034Z,1006.58
2018-12-20T07:40:19.019Z,1006.59
2018-12-20T07:41:19.020Z,1006.59
2018-12-20T07:42:19.018Z,1006.61
2018-12-20T07:43:19.214Z,1006.63
2018-12-20T07:44:19.223Z,1006.66
2018-12-20T07:45:19.006Z,1006.65
2018-12-20T07:46:18.989Z,1006.68
2018-12-20T07:47:19.193Z,1006.68
2018-12-20T07:48:18.977Z,1006.70
2018-12-20T07:49:18.972Z,1006.75
2018-12-20T07:50:18.965Z,1006.75
2018-12-20T07:51:19.180Z,1006.73
2018-12-20T07:52:18.964Z,1006.76
2018-12-20T07:53:19.238Z,1006.73
2018-12-20T07:54:19.150Z,1006.76
2018-12-20T07:55:18.936Z,1006.75
2018-12-20T07:56:18.955Z,1006.76
2018-12-20T07:57:18.941Z,1006.74
2018-12-20T07:58:18.929Z,1006.71
2018-12-20T07:59:23.527Z,1006.79
2018-12-20T08:00:18.909Z,1006.72
2018-12-20T08:01:19.126Z,1006.78
2018-12-20T08:02:18.902Z,1006.75
2018-12-20T08:03:19.096Z,1006.78
2018-12-20T08:04:18.892Z,1006.78
2018-12-20T08:05:18.887Z,1006.76
2018-12-20T08:06:18.886Z,1006.77
2018-12-20T08:07:18.879Z,1006.74
2018-12-20T08:08:18.866Z,1006.75
2018-12-20T08:09:19.063Z,1006.81
2018-12-20T08:10:18.868Z,1006.76
2018-12-20T08:11:18.864Z,1006.77
2018-12-20T08:12:18.841Z,1006.81
2018-12-20T08:13:19.047Z,1006.78
2018-12-20T08:14:19.037Z,1006.80
2018-12-20T08:15:18.837Z,1006.78
2018-12-20T08:16:18.827Z,1006.83
2018-12-20T08:17:18.819Z,1006.82
2018-12-20T08:18:18.816Z,1006.82
2018-12-20T08:19:18.804Z,1006.88
2018-12-20T08:20:18.797Z,1006.86
2018-12-20T08:21:18.805Z,1006.85
2018-12-20T08:22:18.798Z,1006.85
2018-12-20T08:23:18.783Z,1006.87
2018-12-20T08:24:18.787Z,1006.90
2018-12-20T08:25:18.776Z,1006.88
2018-12-20T08:26:18.975Z,1006.87
2018-12-20T08:27:18.777Z,1006.89
2018-12-20T08:28:18.756Z,1006.90
2018-12-20T08:29:18.749Z,1006.87
2018-12-20T08:30:18.752Z,1006.95
2018-12-20T08:31:18.750Z,1006.94
2018-12-20T08:32:18.750Z,1006.97
2018-12-20T08:33:18.935Z,1006.98
2018-12-20T08:34:18.720Z,1007.01
2018-12-20T08:35:18.716Z,1007.01
2018-12-20T08:36:18.712Z,1007.01
2018-12-20T08:37:18.714Z,1007.04
2018-12-20T08:38:18.718Z,1007.05
2018-12-20T08:39:18.912Z,1007.04
2018-12-20T08:40:18.684Z,1007.05
2018-12-20T08:41:18.897Z,1007.02
2018-12-20T08:42:18.683Z,1007.04
2018-12-20T08:43:18.668Z,1007.03
2018-12-20T08:44:18.685Z,1007.07
2018-12-20T08:45:18.674Z,1007.10
2018-12-20T08:46:18.655Z,1007.10
2018-12-20T08:47:18.652Z,1007.11
2018-12-20T08:48:18.860Z,1007.11
2018-12-20T08:49:18.642Z,1007.11
2018-12-20T08:50:18.636Z,1007.13
2018-12-20T08:51:18.645Z,1007.15
2018-12-20T08:52:18.620Z,1007.14
2018-12-20T08:53:18.629Z,1007.15
2018-12-20T08:54:18.818Z,1007.18
2018-12-20T08:55:18.601Z,1007.18
2018-12-20T08:56:18.608Z,1007.18
2018-12-20T08:57:18.806Z,1007.19
2018-12-20T08:58:18.601Z,1007.14
2018-12-20T08:59:18.590Z,1007.20
2018-12-20T09:00:18.576Z,1007.19
2018-12-20T09:01:18.583Z,1007.21
2018-12-20T09:02:18.569Z,1007.17
2018-12-20T09:03:18.555Z,1007.19
2018-12-20T09:04:18.557Z,1007.21
2018-12-20T09:05:18.556Z,1007.22
2018-12-20T09:06:18.539Z,1007.21
2018-12-20T09:07:18.544Z,1007.23
2018-12-20T09:08:18.536Z,1007.25
2018-12-20T09:09:18.534Z,1007.19
2018-12-20T09:10:18.517Z,1007.25
2018-12-20T09:11:18.519Z,1007.26
2018-12-20T09:12:18.507Z,1007.29
2018-12-20T09:13:18.507Z,1007.28
2018-12-20T09:14:18.716Z,1007.27
2018-12-20T09:15:18.490Z,1007.30
2018-12-20T09:16:18.501Z,1007.30
2018-12-20T09:17:18.492Z,1007.29
2018-12-20T09:18:18.678Z,1007.30
2018-12-20T09:19:18.474Z,1007.32
2018-12-20T09:20:18.461Z,1007.33
2018-12-20T09:21:18.463Z,1007.38
2018-12-20T09:22:18.454Z,1007.36
2018-12-20T09:23:18.443Z,1007.38
2018-12-20T09:24:18.454Z,1007.38
2018-12-20T09:25:18.453Z,1007.36
2018-12-20T09:26:18.444Z,1007.40
2018-12-20T09:27:18.429Z,1007.36
2018-12-20T09:28:18.418Z,1007.38
2018-12-20T09:29:18.418Z,1007.38
2018-12-20T09:30:18.407Z,1007.34
2018-12-20T09:31:18.419Z,1007.38
2018-12-20T09:32:18.404Z,1007.34
2018-12-20T09:33:18.395Z,1007.38
2018-12-20T09:34:18.398Z,1007.38
2018-12-20T09:35:18.376Z,1007.39
2018-12-20T09:36:18.397Z,1007.38
2018-12-20T09:37:18.387Z,1007.40
2018-12-20T09:38:18.369Z,1007.40
2018-12-20T09:39:18.376Z,1007.39
2018-12-20T09:40:18.372Z,1007.37
2018-12-20T09:41:18.356Z,1007.40
2018-12-20T09:42:18.342Z,1007.38
2018-12-20T09:43:18.339Z,1007.37
2018-12-20T09:44:18.328Z,1007.39
2018-12-20T09:45:18.329Z,1007.38
2018-12-20T09:46:18.335Z,1007.39
2018-12-20T09:47:18.316Z,1007.39
2018-12-20T09:48:18.334Z,1007.40
2018-12-20T09:49:18.302Z,1007.37
2018-12-20T09:50:18.319Z,1007.38
2018-12-20T09:51:18.320Z,1007.39
2018-12-20T09:52:18.302Z,1007.35
2018-12-20T09:53:18.281Z,1007.37
2018-12-20T09:54:18.291Z,1007.43
2018-12-20T09:55:18.291Z,1007.39
2018-12-20T09:56:18.274Z,1007.41
2018-12-20T09:57:18.479Z,1007.41
2018-12-20T09:58:18.253Z,1007.40
2018-12-20T09:59:18.251Z,1007.35
2018-12-20T10:00:18.444Z,1007.38
2018-12-20T10:01:18.260Z,1007.38
2018-12-20T10:02:18.241Z,1007.39
2018-12-20T10:03:18.250Z,1007.36
2018-12-20T10:04:18.423Z,1007.36
2018-12-20T10:05:18.241Z,1007.33
2018-12-20T10:06:18.209Z,1007.35
2018-12-20T10:07:18.201Z,1007.30
2018-12-20T10:08:18.199Z,1007.32
2018-12-20T10:09:18.219Z,1007.32
2018-12-20T10:10:18.194Z,1007.28
2018-12-20T10:11:18.189Z,1007.30
2018-12-20T10:12:18.178Z,1007.29
2018-12-20T10:13:18.166Z,1007.31
2018-12-20T10:14:18.161Z,1007.31
2018-12-20T10:15:18.166Z,1007.32
2018-12-20T10:16:18.158Z,1007.27
2018-12-20T10:17:20.102Z,1007.31
2018-12-20T10:18:18.150Z,1007.31
2018-12-20T10:19:18.145Z,1007.29
2018-12-20T10:20:18.130Z,1007.28
2018-12-20T10:21:18.138Z,1007.24
2018-12-20T10:22:18.126Z,1007.22
2018-12-20T10:23:18.115Z,1007.24
2018-12-20T10:24:18.314Z,1007.23
2018-12-20T10:25:18.102Z,1007.19
2018-12-20T10:26:18.096Z,1007.24
2018-12-20T10:27:18.307Z,1007.19
2018-12-20T10:28:18.291Z,1007.21
2018-12-20T10:29:18.284Z,1007.11
2018-12-20T10:30:18.099Z,1007.13
2018-12-20T10:31:18.080Z,1007.14
2018-12-20T10:32:18.265Z,1007.14
2018-12-20T10:33:18.263Z,1007.17
2018-12-20T10:34:18.066Z,1007.19
2018-12-20T10:35:18.067Z,1007.18
2018-12-20T10:36:18.069Z,1007.17
2018-12-20T10:37:18.044Z,1007.14
2018-12-20T10:38:18.039Z,1007.21
2018-12-20T10:39:18.245Z,1007.17
2018-12-20T10:40:18.016Z,1007.15
2018-12-20T10:41:18.024Z,1007.20
2018-12-20T10:42:18.011Z,1007.21
2018-12-20T10:43:18.010Z,1007.19
2018-12-20T10:44:17.997Z,1007.16
2018-12-20T10:45:17.991Z,1007.15
2018-12-20T10:46:18.198Z,1007.18
2018-12-20T10:47:17.998Z,1007.12
2018-12-20T10:48:18.221Z,1007.13
2018-12-20T10:49:17.981Z,1007.16
2018-12-20T10:50:17.968Z,1007.14
2018-12-20T10:51:17.978Z,1007.15
2018-12-20T10:52:19.419Z,1007.15
2018-12-20T10:53:17.952Z,1007.14
2018-12-20T10:54:17.946Z,1007.11
2018-12-20T10:55:17.938Z,1007.07
2018-12-20T10:56:17.935Z,1007.14
2018-12-20T10:57:17.944Z,1007.12
2018-12-20T10:58:17.924Z,1007.11
2018-12-20T10:59:17.934Z,1007.11
2018-12-20T11:00:17.922Z,1007.15
2018-12-20T11:01:17.910Z,1007.12
2018-12-20T11:02:17.931Z,1007.13
2018-12-20T11:03:17.897Z,1007.11
2018-12-20T11:04:17.922Z,1007.08
2018-12-20T11:05:17.878Z,1007.09
2018-12-20T11:06:17.881Z,1007.06
2018-12-20T11:07:17.884Z,1007.06
2018-12-20T11:08:17.878Z,1007.01
2018-12-20T11:09:17.886Z,1006.97
2018-12-20T11:10:17.859Z,1007.02
2018-12-20T11:11:17.863Z,1006.98
2018-12-20T11:12:17.854Z,1006.95
2018-12-20T11:13:17.857Z,1006.95
2018-12-20T11:14:17.841Z,1006.96
2018-12-20T11:15:17.843Z,1006.91
2018-12-20T11:16:17.823Z,1006.91
2018-12-20T11:17:18.025Z,1006.92
2018-12-20T11:18:17.827Z,1006.89
2018-12-20T11:19:17.821Z,1006.92
2018-12-20T11:20:17.807Z,1006.88
2018-12-20T11:21:17.806Z,1006.90
2018-12-20T11:22:17.800Z,1006.89
2018-12-20T11:23:17.796Z,1006.91
2018-12-20T11:24:17.803Z,1006.88
2018-12-20T11:25:17.976Z,1006.83
2018-12-20T11:26:17.970Z,1006.83
2018-12-20T11:27:17.763Z,1006.84
2018-12-20T11:28:17.763Z,1006.86
2018-12-20T11:29:17.759Z,1006.82
2018-12-20T11:30:17.765Z,1006.81
2018-12-20T11:31:17.778Z,1006.83
2018-12-20T11:32:17.765Z,1006.79
2018-12-20T11:33:17.760Z,1006.77
2018-12-20T11:34:17.738Z,1006.80
2018-12-20T11:35:17.743Z,1006.76
2018-12-20T11:36:17.745Z,1006.76
2018-12-20T11:37:17.926Z,1006.75
2018-12-20T11:38:17.706Z,1006.75
2018-12-20T11:39:17.714Z,1006.71
2018-12-20T11:40:17.701Z,1006.76
2018-12-20T11:41:17.894Z,1006.77
2018-12-20T11:42:17.705Z,1006.73
2018-12-20T11:43:17.679Z,1006.80
2018-12-20T11:44:17.693Z,1006.80
2018-12-20T11:45:17.687Z,1006.73
2018-12-20T11:46:17.675Z,1006.75
2018-12-20T11:47:17.678Z,1006.75
2018-12-20T11:48:17.667Z,1006.80
2018-12-20T11:49:17.867Z,1006.72
2018-12-20T11:50:17.659Z,1006.73
2018-12-20T11:51:17.636Z,1006.75
2018-12-20T11:52:17.685Z,1006.74
2018-12-20T11:53:17.642Z,1006.75
2018-12-20T11:54:17.823Z,1006.75
2018-12-20T11:55:17.623Z,1006.71
2018-12-20T11:56:17.611Z,1006.72
2018-12-20T11:57:17.808Z,1006.78
2018-12-20T11:58:17.611Z,1006.71
2018-12-20T11:59:17.596Z,1006.71
2018-12-20T12:00:17.593Z,1006.75
2018-12-20T12:01:17.604Z,1006.72
2018-12-20T12:02:24.453Z,1006.68
2018-12-20T12:03:17.792Z,1006.72
2018-12-20T12:04:17.571Z,1006.71
2018-12-20T12:05:17.563Z,1006.70